sensor_id;sensor_type;location;lat;lon;timestamp;pressure;altitude;pressure_sealevel;temperature
20736;BMP180;10528;52.124;5.196;2023-03-11T00:00:54;100551.00;;;7.60
20736;BMP180;10528;52.124;5.196;2023-03-11T00:03:22;100565.00;;;7.60
20736;BMP180;10528;52.124;5.196;2023-03-11T00:05:51;100555.00;;;7.60
20736;BMP180;10528;52.124;5.196;2023-03-11T00:08:24;100567.00;;;7.60
20736;BMP180;10528;52.124;5.196;2023-03-11T00:10:54;100563.00;;;7.50
20736;BMP180;10528;52.124;5.196;2023-03-11T00:13:22;100557.00;;;7.50
20736;BMP180;10528;52.124;5.196;2023-03-11T00:15:51;100560.00;;;7.50
20736;BMP180;10528;52.124;5.196;2023-03-11T00:18:23;100561.00;;;7.50
20736;BMP180;10528;52.124;5.196;2023-03-11T00:20:54;100560.00;;;7.50
20736;BMP180;10528;52.124;5.196;2023-03-11T00:23:23;100567.00;;;7.50
20736;BMP180;10528;52.124;5.196;2023-03-11T00:25:50;100567.00;;;7.50
20736;BMP180;10528;52.124;5.196;2023-03-11T00:28:17;100568.00;;;7.50
20736;BMP180;10528;52.124;5.196;2023-03-11T00:30:45;100577.00;;;7.50
20736;BMP180;10528;52.124;5.196;2023-03-11T00:33:15;100582.00;;;7.50
20736;BMP180;10528;52.124;5.196;2023-03-11T00:35:43;100583.00;;;7.60
20736;BMP180;10528;52.124;5.196;2023-03-11T00:38:14;100590.00;;;7.60
20736;BMP180;10528;52.124;5.196;2023-03-11T00:40:42;100600.00;;;7.60
20736;BMP180;10528;52.124;5.196;2023-03-11T00:43:10;100602.00;;;7.60
20736;BMP180;10528;52.124;5.196;2023-03-11T00:45:37;100614.00;;;7.60
20736;BMP180;10528;52.124;5.196;2023-03-11T00:48:05;100613.00;;;7.60
20736;BMP180;10528;52.124;5.196;2023-03-11T00:50:36;100620.00;;;7.60
20736;BMP180;10528;52.124;5.196;2023-03-11T00:53:04;100621.00;;;7.60
20736;BMP180;10528;52.124;5.196;2023-03-11T00:55:33;100623.00;;;7.60
20736;BMP180;10528;52.124;5.196;2023-03-11T00:58:05;100621.00;;;7.60
20736;BMP180;10528;52.124;5.196;2023-03-11T01:00:42;100621.00;;;7.60
20736;BMP180;10528;52.124;5.196;2023-03-11T01:03:09;100622.00;;;7.60
20736;BMP180;10528;52.124;5.196;2023-03-11T01:05:36;100618.00;;;7.60
20736;BMP180;10528;52.124;5.196;2023-03-11T01:08:04;100635.00;;;7.60
20736;BMP180;10528;52.124;5.196;2023-03-11T01:10:33;100629.00;;;7.50
20736;BMP180;10528;52.124;5.196;2023-03-11T01:13:00;100627.00;;;7.50
20736;BMP180;10528;52.124;5.196;2023-03-11T01:15:34;100623.00;;;7.50
20736;BMP180;10528;52.124;5.196;2023-03-11T01:18:03;100637.00;;;7.50
20736;BMP180;10528;52.124;5.196;2023-03-11T01:20:32;100636.00;;;7.50
20736;BMP180;10528;52.124;5.196;2023-03-11T01:22:59;100641.00;;;7.40
20736;BMP180;10528;52.124;5.196;2023-03-11T01:25:28;100648.00;;;7.40
20736;BMP180;10528;52.124;5.196;2023-03-11T01:27:57;100646.00;;;7.40
20736;BMP180;10528;52.124;5.196;2023-03-11T01:30:26;100637.00;;;7.40
20736;BMP180;10528;52.124;5.196;2023-03-11T01:32:54;100640.00;;;7.40
20736;BMP180;10528;52.124;5.196;2023-03-11T01:35:25;100647.00;;;7.40
20736;BMP180;10528;52.124;5.196;2023-03-11T01:37:53;100651.00;;;7.40
20736;BMP180;10528;52.124;5.196;2023-03-11T01:40:30;100655.00;;;7.40
20736;BMP180;10528;52.124;5.196;2023-03-11T01:43:00;100643.00;;;7.40
20736;BMP180;10528;52.124;5.196;2023-03-11T01:48:21;100655.00;;;7.30
20736;BMP180;10528;52.124;5.196;2023-03-11T01:50:49;100652.00;;;7.30
20736;BMP180;10528;52.124;5.196;2023-03-11T01:53:17;100660.00;;;7.30
20736;BMP180;10528;52.124;5.196;2023-03-11T01:55:46;100650.00;;;7.30
20736;BMP180;10528;52.124;5.196;2023-03-11T01:58:20;100654.00;;;7.20
20736;BMP180;10528;52.124;5.196;2023-03-11T02:00:49;100656.00;;;7.20
20736;BMP180;10528;52.124;5.196;2023-03-11T02:03:37;100661.00;;;7.20
20736;BMP180;10528;52.124;5.196;2023-03-11T02:06:14;100659.00;;;7.10
20736;BMP180;10528;52.124;5.196;2023-03-11T02:08:43;100655.00;;;7.10
20736;BMP180;10528;52.124;5.196;2023-03-11T02:11:18;100652.00;;;7.10
20736;BMP180;10528;52.124;5.196;2023-03-11T02:13:47;100651.00;;;7.10
20736;BMP180;10528;52.124;5.196;2023-03-11T02:16:17;100656.00;;;7.10
20736;BMP180;10528;52.124;5.196;2023-03-11T02:18:44;100677.00;;;7.00
20736;BMP180;10528;52.124;5.196;2023-03-11T02:21:25;100677.00;;;7.00
20736;BMP180;10528;52.124;5.196;2023-03-11T02:27:05;100668.00;;;6.90
20736;BMP180;10528;52.124;5.196;2023-03-11T02:29:33;100669.00;;;6.90
20736;BMP180;10528;52.124;5.196;2023-03-11T02:32:07;100675.00;;;6.90
20736;BMP180;10528;52.124;5.196;2023-03-11T02:34:39;100671.00;;;6.90
20736;BMP180;10528;52.124;5.196;2023-03-11T02:37:10;100674.00;;;6.80
20736;BMP180;10528;52.124;5.196;2023-03-11T02:39:51;100675.00;;;6.80
20736;BMP180;10528;52.124;5.196;2023-03-11T02:42:27;100662.00;;;6.80
20736;BMP180;10528;52.124;5.196;2023-03-11T02:45:07;100668.00;;;6.80
20736;BMP180;10528;52.124;5.196;2023-03-11T02:47:37;100672.00;;;6.70
20736;BMP180;10528;52.124;5.196;2023-03-11T02:50:11;100675.00;;;6.70
20736;BMP180;10528;52.124;5.196;2023-03-11T02:52:39;100663.00;;;6.70
20736;BMP180;10528;52.124;5.196;2023-03-11T02:55:07;100670.00;;;6.70
20736;BMP180;10528;52.124;5.196;2023-03-11T02:57:35;100663.00;;;6.60
20736;BMP180;10528;52.124;5.196;2023-03-11T03:00:05;100667.00;;;6.60
20736;BMP180;10528;52.124;5.196;2023-03-11T03:02:42;100678.00;;;6.60
20736;BMP180;10528;52.124;5.196;2023-03-11T03:05:11;100672.00;;;6.60
20736;BMP180;10528;52.124;5.196;2023-03-11T03:07:38;100681.00;;;6.50
20736;BMP180;10528;52.124;5.196;2023-03-11T03:10:08;100668.00;;;6.50
20736;BMP180;10528;52.124;5.196;2023-03-11T03:12:35;100680.00;;;6.50
20736;BMP180;10528;52.124;5.196;2023-03-11T03:15:02;100681.00;;;6.50
20736;BMP180;10528;52.124;5.196;2023-03-11T03:17:29;100683.00;;;6.40
20736;BMP180;10528;52.124;5.196;2023-03-11T03:19:56;100683.00;;;6.40
20736;BMP180;10528;52.124;5.196;2023-03-11T03:22:22;100686.00;;;6.40
20736;BMP180;10528;52.124;5.196;2023-03-11T03:24:53;100698.00;;;6.40
20736;BMP180;10528;52.124;5.196;2023-03-11T03:27:20;100713.00;;;6.40
20736;BMP180;10528;52.124;5.196;2023-03-11T03:29:47;100709.00;;;6.30
20736;BMP180;10528;52.124;5.196;2023-03-11T03:32:14;100714.00;;;6.30
20736;BMP180;10528;52.124;5.196;2023-03-11T03:34:42;100709.00;;;6.30
20736;BMP180;10528;52.124;5.196;2023-03-11T03:37:08;100706.00;;;6.30
20736;BMP180;10528;52.124;5.196;2023-03-11T03:39:35;100712.00;;;6.30
20736;BMP180;10528;52.124;5.196;2023-03-11T03:42:02;100715.00;;;6.20
20736;BMP180;10528;52.124;5.196;2023-03-11T03:44:32;100717.00;;;6.20
20736;BMP180;10528;52.124;5.196;2023-03-11T03:46:59;100721.00;;;6.20
20736;BMP180;10528;52.124;5.196;2023-03-11T03:49:26;100726.00;;;6.20
20736;BMP180;10528;52.124;5.196;2023-03-11T03:51:54;100721.00;;;6.10
20736;BMP180;10528;52.124;5.196;2023-03-11T03:54:27;100732.00;;;6.10
20736;BMP180;10528;52.124;5.196;2023-03-11T03:56:54;100732.00;;;6.10
20736;BMP180;10528;52.124;5.196;2023-03-11T03:59:21;100744.00;;;6.10
20736;BMP180;10528;52.124;5.196;2023-03-11T04:01:52;100738.00;;;6.10
20736;BMP180;10528;52.124;5.196;2023-03-11T04:04:20;100748.00;;;6.10
20736;BMP180;10528;52.124;5.196;2023-03-11T04:06:47;100746.00;;;6.00
20736;BMP180;10528;52.124;5.196;2023-03-11T04:09:14;100751.00;;;6.00
20736;BMP180;10528;52.124;5.196;2023-03-11T04:11:42;100748.00;;;6.00
20736;BMP180;10528;52.124;5.196;2023-03-11T04:14:10;100746.00;;;6.00
20736;BMP180;10528;52.124;5.196;2023-03-11T04:16:43;100749.00;;;6.00
20736;BMP180;10528;52.124;5.196;2023-03-11T04:19:12;100761.00;;;6.00
20736;BMP180;10528;52.124;5.196;2023-03-11T04:21:39;100751.00;;;5.90
20736;BMP180;10528;52.124;5.196;2023-03-11T04:24:06;100752.00;;;5.90
20736;BMP180;10528;52.124;5.196;2023-03-11T04:26:35;100742.00;;;5.90
20736;BMP180;10528;52.124;5.196;2023-03-11T04:29:04;100749.00;;;5.90
20736;BMP180;10528;52.124;5.196;2023-03-11T04:31:37;100750.00;;;5.90
20736;BMP180;10528;52.124;5.196;2023-03-11T04:34:05;100755.00;;;5.90
20736;BMP180;10528;52.124;5.196;2023-03-11T04:36:33;100762.00;;;5.90
20736;BMP180;10528;52.124;5.196;2023-03-11T04:39:01;100753.00;;;5.80
20736;BMP180;10528;52.124;5.196;2023-03-11T04:41:31;100759.00;;;5.80
20736;BMP180;10528;52.124;5.196;2023-03-11T04:43:59;100766.00;;;5.80
20736;BMP180;10528;52.124;5.196;2023-03-11T04:46:26;100764.00;;;5.80
20736;BMP180;10528;52.124;5.196;2023-03-11T04:48:53;100764.00;;;5.80
20736;BMP180;10528;52.124;5.196;2023-03-11T04:51:20;100772.00;;;5.80
20736;BMP180;10528;52.124;5.196;2023-03-11T04:53:48;100765.00;;;5.80
20736;BMP180;10528;52.124;5.196;2023-03-11T04:56:14;100784.00;;;5.70
20736;BMP180;10528;52.124;5.196;2023-03-11T04:58:41;100784.00;;;5.70
20736;BMP180;10528;52.124;5.196;2023-03-11T05:01:08;100776.00;;;5.70
20736;BMP180;10528;52.124;5.196;2023-03-11T05:03:35;100780.00;;;5.70
20736;BMP180;10528;52.124;5.196;2023-03-11T05:06:02;100778.00;;;5.70
20736;BMP180;10528;52.124;5.196;2023-03-11T05:08:29;100780.00;;;5.70
20736;BMP180;10528;52.124;5.196;2023-03-11T05:10:56;100766.00;;;5.60
20736;BMP180;10528;52.124;5.196;2023-03-11T05:13:24;100774.00;;;5.60
20736;BMP180;10528;52.124;5.196;2023-03-11T05:15:51;100771.00;;;5.60
20736;BMP180;10528;52.124;5.196;2023-03-11T05:18:19;100768.00;;;5.60
20736;BMP180;10528;52.124;5.196;2023-03-11T05:20:47;100778.00;;;5.60
20736;BMP180;10528;52.124;5.196;2023-03-11T05:23:15;100785.00;;;5.60
20736;BMP180;10528;52.124;5.196;2023-03-11T05:25:42;100797.00;;;5.60
20736;BMP180;10528;52.124;5.196;2023-03-11T05:28:09;100786.00;;;5.50
20736;BMP180;10528;52.124;5.196;2023-03-11T05:30:42;100791.00;;;5.50
20736;BMP180;10528;52.124;5.196;2023-03-11T05:33:10;100794.00;;;5.50
20736;BMP180;10528;52.124;5.196;2023-03-11T05:35:37;100792.00;;;5.50
20736;BMP180;10528;52.124;5.196;2023-03-11T05:38:04;100789.00;;;5.50
20736;BMP180;10528;52.124;5.196;2023-03-11T05:40:32;100797.00;;;5.50
20736;BMP180;10528;52.124;5.196;2023-03-11T05:42:58;100792.00;;;5.50
20736;BMP180;10528;52.124;5.196;2023-03-11T05:45:28;100805.00;;;5.50
20736;BMP180;10528;52.124;5.196;2023-03-11T05:47:58;100802.00;;;5.40
20736;BMP180;10528;52.124;5.196;2023-03-11T05:50:25;100804.00;;;5.40
20736;BMP180;10528;52.124;5.196;2023-03-11T05:52:52;100809.00;;;5.40
20736;BMP180;10528;52.124;5.196;2023-03-11T05:55:20;100813.00;;;5.40
20736;BMP180;10528;52.124;5.196;2023-03-11T05:57:50;100825.00;;;5.40
20736;BMP180;10528;52.124;5.196;2023-03-11T06:00:18;100814.00;;;5.40
20736;BMP180;10528;52.124;5.196;2023-03-11T06:02:49;100816.00;;;5.40
20736;BMP180;10528;52.124;5.196;2023-03-11T06:05:18;100819.00;;;5.40
20736;BMP180;10528;52.124;5.196;2023-03-11T06:07:47;100829.00;;;5.40
20736;BMP180;10528;52.124;5.196;2023-03-11T06:10:14;100821.00;;;5.40
20736;BMP180;10528;52.124;5.196;2023-03-11T06:12:41;100832.00;;;5.40
20736;BMP180;10528;52.124;5.196;2023-03-11T06:15:35;100832.00;;;5.40
20736;BMP180;10528;52.124;5.196;2023-03-11T06:18:04;100827.00;;;5.30
20736;BMP180;10528;52.124;5.196;2023-03-11T06:20:31;100829.00;;;5.30
20736;BMP180;10528;52.124;5.196;2023-03-11T06:22:58;100825.00;;;5.30
20736;BMP180;10528;52.124;5.196;2023-03-11T06:25:26;100848.00;;;5.30
20736;BMP180;10528;52.124;5.196;2023-03-11T06:27:53;100844.00;;;5.30
20736;BMP180;10528;52.124;5.196;2023-03-11T06:30:23;100848.00;;;5.30
20736;BMP180;10528;52.124;5.196;2023-03-11T06:33:12;100859.00;;;5.30
20736;BMP180;10528;52.124;5.196;2023-03-11T06:35:41;100861.00;;;5.30
20736;BMP180;10528;52.124;5.196;2023-03-11T06:38:08;100864.00;;;5.40
20736;BMP180;10528;52.124;5.196;2023-03-11T06:40:36;100861.00;;;5.40
20736;BMP180;10528;52.124;5.196;2023-03-11T06:43:04;100863.00;;;5.40
20736;BMP180;10528;52.124;5.196;2023-03-11T06:45:34;100879.00;;;5.40
20736;BMP180;10528;52.124;5.196;2023-03-11T06:48:00;100871.00;;;5.40
20736;BMP180;10528;52.124;5.196;2023-03-11T06:50:29;100865.00;;;5.40
20736;BMP180;10528;52.124;5.196;2023-03-11T06:52:59;100871.00;;;5.50
20736;BMP180;10528;52.124;5.196;2023-03-11T06:55:27;100862.00;;;5.50
20736;BMP180;10528;52.124;5.196;2023-03-11T06:57:54;100863.00;;;5.50
20736;BMP180;10528;52.124;5.196;2023-03-11T07:00:22;100880.00;;;5.50
20736;BMP180;10528;52.124;5.196;2023-03-11T07:02:54;100889.00;;;5.60
20736;BMP180;10528;52.124;5.196;2023-03-11T07:05:21;100891.00;;;5.60
20736;BMP180;10528;52.124;5.196;2023-03-11T07:07:54;100902.00;;;5.70
20736;BMP180;10528;52.124;5.196;2023-03-11T07:10:22;100902.00;;;5.80
20736;BMP180;10528;52.124;5.196;2023-03-11T07:12:49;100902.00;;;5.80
20736;BMP180;10528;52.124;5.196;2023-03-11T07:15:16;100909.00;;;5.90
20736;BMP180;10528;52.124;5.196;2023-03-11T07:17:43;100899.00;;;6.00
20736;BMP180;10528;52.124;5.196;2023-03-11T07:20:11;100915.00;;;6.00
20736;BMP180;10528;52.124;5.196;2023-03-11T07:22:38;100910.00;;;6.00
20736;BMP180;10528;52.124;5.196;2023-03-11T07:25:05;100912.00;;;6.00
20736;BMP180;10528;52.124;5.196;2023-03-11T07:27:32;100906.00;;;6.00
20736;BMP180;10528;52.124;5.196;2023-03-11T07:30:00;100921.00;;;6.10
20736;BMP180;10528;52.124;5.196;2023-03-11T07:32:28;100920.00;;;6.10
20736;BMP180;10528;52.124;5.196;2023-03-11T07:34:55;100916.00;;;6.10
20736;BMP180;10528;52.124;5.196;2023-03-11T07:37:22;100905.00;;;6.10
20736;BMP180;10528;52.124;5.196;2023-03-11T07:39:48;100897.00;;;6.10
20736;BMP180;10528;52.124;5.196;2023-03-11T07:42:15;100917.00;;;6.20
20736;BMP180;10528;52.124;5.196;2023-03-11T07:44:43;100919.00;;;6.20
20736;BMP180;10528;52.124;5.196;2023-03-11T07:47:10;100922.00;;;6.20
20736;BMP180;10528;52.124;5.196;2023-03-11T07:49:37;100927.00;;;6.20
20736;BMP180;10528;52.124;5.196;2023-03-11T07:52:05;100936.00;;;6.30
20736;BMP180;10528;52.124;5.196;2023-03-11T07:54:32;100938.00;;;6.30
20736;BMP180;10528;52.124;5.196;2023-03-11T07:56:59;100945.00;;;6.30
20736;BMP180;10528;52.124;5.196;2023-03-11T07:59:27;100943.00;;;6.30
20736;BMP180;10528;52.124;5.196;2023-03-11T08:01:54;100941.00;;;6.40
20736;BMP180;10528;52.124;5.196;2023-03-11T08:04:22;100955.00;;;6.40
20736;BMP180;10528;52.124;5.196;2023-03-11T08:06:49;100952.00;;;6.50
20736;BMP180;10528;52.124;5.196;2023-03-11T08:09:16;100950.00;;;6.50
20736;BMP180;10528;52.124;5.196;2023-03-11T08:11:43;100951.00;;;6.50
20736;BMP180;10528;52.124;5.196;2023-03-11T08:14:10;100958.00;;;6.60
20736;BMP180;10528;52.124;5.196;2023-03-11T08:16:39;100953.00;;;6.60
20736;BMP180;10528;52.124;5.196;2023-03-11T08:19:12;100955.00;;;6.70
20736;BMP180;10528;52.124;5.196;2023-03-11T08:21:39;100958.00;;;6.80
20736;BMP180;10528;52.124;5.196;2023-03-11T08:24:06;100954.00;;;6.80
20736;BMP180;10528;52.124;5.196;2023-03-11T08:26:33;100969.00;;;6.90
20736;BMP180;10528;52.124;5.196;2023-03-11T08:29:00;100959.00;;;6.90
20736;BMP180;10528;52.124;5.196;2023-03-11T08:31:30;100974.00;;;7.00
20736;BMP180;10528;52.124;5.196;2023-03-11T08:34:09;100975.00;;;7.00
20736;BMP180;10528;52.124;5.196;2023-03-11T08:36:36;100973.00;;;7.10
20736;BMP180;10528;52.124;5.196;2023-03-11T08:39:03;100969.00;;;7.20
20736;BMP180;10528;52.124;5.196;2023-03-11T08:41:30;100981.00;;;7.20
20736;BMP180;10528;52.124;5.196;2023-03-11T08:43:57;100987.00;;;7.30
20736;BMP180;10528;52.124;5.196;2023-03-11T08:46:32;100983.00;;;7.40
20736;BMP180;10528;52.124;5.196;2023-03-11T08:49:01;100968.00;;;7.40
20736;BMP180;10528;52.124;5.196;2023-03-11T08:51:31;100982.00;;;7.50
20736;BMP180;10528;52.124;5.196;2023-03-11T08:53:59;100974.00;;;7.60
20736;BMP180;10528;52.124;5.196;2023-03-11T08:56:26;100991.00;;;7.70
20736;BMP180;10528;52.124;5.196;2023-03-11T08:58:53;100985.00;;;7.70
20736;BMP180;10528;52.124;5.196;2023-03-11T09:01:20;100995.00;;;7.90
20736;BMP180;10528;52.124;5.196;2023-03-11T09:03:48;101000.00;;;8.00
20736;BMP180;10528;52.124;5.196;2023-03-11T09:06:16;101003.00;;;8.10
20736;BMP180;10528;52.124;5.196;2023-03-11T09:08:44;101012.00;;;8.20
20736;BMP180;10528;52.124;5.196;2023-03-11T09:11:12;101000.00;;;8.30
20736;BMP180;10528;52.124;5.196;2023-03-11T09:13:41;101019.00;;;8.40
20736;BMP180;10528;52.124;5.196;2023-03-11T09:16:13;101006.00;;;8.50
20736;BMP180;10528;52.124;5.196;2023-03-11T09:18:40;101024.00;;;8.70
20736;BMP180;10528;52.124;5.196;2023-03-11T09:21:09;101013.00;;;8.70
20736;BMP180;10528;52.124;5.196;2023-03-11T09:23:37;101024.00;;;8.80
20736;BMP180;10528;52.124;5.196;2023-03-11T09:26:04;101026.00;;;8.90
20736;BMP180;10528;52.124;5.196;2023-03-11T09:28:31;101028.00;;;9.00
20736;BMP180;10528;52.124;5.196;2023-03-11T09:30:58;101016.00;;;9.10
20736;BMP180;10528;52.124;5.196;2023-03-11T09:33:25;101022.00;;;9.20
20736;BMP180;10528;52.124;5.196;2023-03-11T09:35:53;101022.00;;;9.30
20736;BMP180;10528;52.124;5.196;2023-03-11T09:38:20;101019.00;;;9.30
20736;BMP180;10528;52.124;5.196;2023-03-11T09:40:58;101016.00;;;9.40
20736;BMP180;10528;52.124;5.196;2023-03-11T09:47:36;101013.00;;;9.40
20736;BMP180;10528;52.124;5.196;2023-03-11T09:50:17;101020.00;;;9.40
20736;BMP180;10528;52.124;5.196;2023-03-11T09:55:55;101014.00;;;9.50
20736;BMP180;10528;52.124;5.196;2023-03-11T09:58:47;101016.00;;;9.60
20736;BMP180;10528;52.124;5.196;2023-03-11T10:01:29;101018.00;;;9.70
20736;BMP180;10528;52.124;5.196;2023-03-11T10:04:25;101020.00;;;9.80
20736;BMP180;10528;52.124;5.196;2023-03-11T10:06:54;101011.00;;;9.90
20736;BMP180;10528;52.124;5.196;2023-03-11T10:09:45;101030.00;;;10.00
20736;BMP180;10528;52.124;5.196;2023-03-11T10:12:51;101029.00;;;10.10
20736;BMP180;10528;52.124;5.196;2023-03-11T10:16:13;101032.00;;;10.20
20736;BMP180;10528;52.124;5.196;2023-03-11T10:27:25;101033.00;;;10.70
20736;BMP180;10528;52.124;5.196;2023-03-11T10:33:23;101030.00;;;10.80
20736;BMP180;10528;52.124;5.196;2023-03-11T10:35:56;101038.00;;;10.90
20736;BMP180;10528;52.124;5.196;2023-03-11T10:38:33;101042.00;;;10.90
20736;BMP180;10528;52.124;5.196;2023-03-11T10:44:14;101024.00;;;11.00
20736;BMP180;10528;52.124;5.196;2023-03-11T10:46:42;101026.00;;;11.10
20736;BMP180;10528;52.124;5.196;2023-03-11T10:49:18;101033.00;;;11.20
20736;BMP180;10528;52.124;5.196;2023-03-11T10:51:50;101030.00;;;11.30
20736;BMP180;10528;52.124;5.196;2023-03-11T10:54:34;101021.00;;;11.40
20736;BMP180;10528;52.124;5.196;2023-03-11T10:59:50;101035.00;;;11.60
20736;BMP180;10528;52.124;5.196;2023-03-11T11:02:25;101039.00;;;11.70
20736;BMP180;10528;52.124;5.196;2023-03-11T11:05:32;101050.00;;;11.80
20736;BMP180;10528;52.124;5.196;2023-03-11T11:08:15;101055.00;;;11.80
20736;BMP180;10528;52.124;5.196;2023-03-11T11:10:56;101052.00;;;11.90
20736;BMP180;10528;52.124;5.196;2023-03-11T11:13:27;101052.00;;;12.00
20736;BMP180;10528;52.124;5.196;2023-03-11T11:16:01;101045.00;;;12.00
20736;BMP180;10528;52.124;5.196;2023-03-11T11:18:43;101058.00;;;12.10
20736;BMP180;10528;52.124;5.196;2023-03-11T11:21:28;101050.00;;;12.20
20736;BMP180;10528;52.124;5.196;2023-03-11T11:29:37;101058.00;;;12.30
20736;BMP180;10528;52.124;5.196;2023-03-11T11:32:25;101057.00;;;12.40
20736;BMP180;10528;52.124;5.196;2023-03-11T11:34:56;101053.00;;;12.40
20736;BMP180;10528;52.124;5.196;2023-03-11T11:37:25;101064.00;;;12.40
20736;BMP180;10528;52.124;5.196;2023-03-11T11:40:07;101057.00;;;12.50
20736;BMP180;10528;52.124;5.196;2023-03-11T11:42:53;101050.00;;;12.50
20736;BMP180;10528;52.124;5.196;2023-03-11T11:45:45;101050.00;;;12.60
20736;BMP180;10528;52.124;5.196;2023-03-11T11:48:21;101048.00;;;12.60
20736;BMP180;10528;52.124;5.196;2023-03-11T11:50:59;101058.00;;;12.70
20736;BMP180;10528;52.124;5.196;2023-03-11T11:53:49;101052.00;;;12.70
20736;BMP180;10528;52.124;5.196;2023-03-11T11:56:18;101053.00;;;12.80
20736;BMP180;10528;52.124;5.196;2023-03-11T11:58:44;101051.00;;;12.80
20736;BMP180;10528;52.124;5.196;2023-03-11T12:02:03;101058.00;;;12.80
20736;BMP180;10528;52.124;5.196;2023-03-11T12:11:20;101051.00;;;12.70
20736;BMP180;10528;52.124;5.196;2023-03-11T12:16:55;101041.00;;;12.80
20736;BMP180;10528;52.124;5.196;2023-03-11T12:30:57;101030.00;;;12.90
20736;BMP180;10528;52.124;5.196;2023-03-11T12:33:57;101035.00;;;12.90
20736;BMP180;10528;52.124;5.196;2023-03-11T12:36:39;101041.00;;;12.90
20736;BMP180;10528;52.124;5.196;2023-03-11T12:39:27;101038.00;;;12.90
20736;BMP180;10528;52.124;5.196;2023-03-11T12:42:20;101034.00;;;12.90
20736;BMP180;10528;52.124;5.196;2023-03-11T12:44:48;101031.00;;;13.00
20736;BMP180;10528;52.124;5.196;2023-03-11T12:47:25;101040.00;;;13.00
20736;BMP180;10528;52.124;5.196;2023-03-11T12:50:49;101024.00;;;13.10
20736;BMP180;10528;52.124;5.196;2023-03-11T12:53:16;101044.00;;;13.10
20736;BMP180;10528;52.124;5.196;2023-03-11T12:56:13;101035.00;;;13.10
20736;BMP180;10528;52.124;5.196;2023-03-11T13:05:50;101044.00;;;13.10
20736;BMP180;10528;52.124;5.196;2023-03-11T13:08:44;101037.00;;;13.20
20736;BMP180;10528;52.124;5.196;2023-03-11T13:11:34;101045.00;;;13.20
20736;BMP180;10528;52.124;5.196;2023-03-11T13:16:39;101040.00;;;13.20
20736;BMP180;10528;52.124;5.196;2023-03-11T13:21:53;101045.00;;;13.20
20736;BMP180;10528;52.124;5.196;2023-03-11T13:26:55;101036.00;;;13.20
20736;BMP180;10528;52.124;5.196;2023-03-11T13:36:07;101038.00;;;13.20
20736;BMP180;10528;52.124;5.196;2023-03-11T13:39:03;101033.00;;;13.20
20736;BMP180;10528;52.124;5.196;2023-03-11T13:41:42;101037.00;;;13.20
20736;BMP180;10528;52.124;5.196;2023-03-11T13:44:25;101042.00;;;13.20
20736;BMP180;10528;52.124;5.196;2023-03-11T13:47:09;101037.00;;;13.20
20736;BMP180;10528;52.124;5.196;2023-03-11T13:52:38;101034.00;;;13.30
20736;BMP180;10528;52.124;5.196;2023-03-11T13:55:18;101043.00;;;13.30
20736;BMP180;10528;52.124;5.196;2023-03-11T13:57:55;101044.00;;;13.30
20736;BMP180;10528;52.124;5.196;2023-03-11T14:00:26;101047.00;;;13.30
20736;BMP180;10528;52.124;5.196;2023-03-11T14:03:01;101047.00;;;13.30
20736;BMP180;10528;52.124;5.196;2023-03-11T14:05:40;101052.00;;;13.20
20736;BMP180;10528;52.124;5.196;2023-03-11T14:08:21;101046.00;;;13.20
20736;BMP180;10528;52.124;5.196;2023-03-11T14:10:58;101038.00;;;13.20
20736;BMP180;10528;52.124;5.196;2023-03-11T14:13:31;101049.00;;;13.20
20736;BMP180;10528;52.124;5.196;2023-03-11T14:16:15;101051.00;;;13.20
20736;BMP180;10528;52.124;5.196;2023-03-11T14:21:30;101064.00;;;13.20
20736;BMP180;10528;52.124;5.196;2023-03-11T14:23:57;101060.00;;;13.20
20736;BMP180;10528;52.124;5.196;2023-03-11T14:26:33;101053.00;;;13.20
20736;BMP180;10528;52.124;5.196;2023-03-11T14:29:14;101060.00;;;13.20
20736;BMP180;10528;52.124;5.196;2023-03-11T14:31:43;101054.00;;;13.20
20736;BMP180;10528;52.124;5.196;2023-03-11T14:34:21;101066.00;;;13.20
20736;BMP180;10528;52.124;5.196;2023-03-11T14:36:54;101067.00;;;13.20
20736;BMP180;10528;52.124;5.196;2023-03-11T14:39:38;101066.00;;;13.20
20736;BMP180;10528;52.124;5.196;2023-03-11T14:42:46;101063.00;;;13.20
20736;BMP180;10528;52.124;5.196;2023-03-11T14:45:17;101065.00;;;13.20
20736;BMP180;10528;52.124;5.196;2023-03-11T14:48:11;101067.00;;;13.20
20736;BMP180;10528;52.124;5.196;2023-03-11T14:50:42;101068.00;;;13.20
20736;BMP180;10528;52.124;5.196;2023-03-11T14:53:36;101063.00;;;13.20
20736;BMP180;10528;52.124;5.196;2023-03-11T14:56:12;101062.00;;;13.20
20736;BMP180;10528;52.124;5.196;2023-03-11T14:58:48;101068.00;;;13.30
20736;BMP180;10528;52.124;5.196;2023-03-11T15:01:39;101060.00;;;13.20
20736;BMP180;10528;52.124;5.196;2023-03-11T15:04:29;101055.00;;;13.20
20736;BMP180;10528;52.124;5.196;2023-03-11T15:07:00;101065.00;;;13.20
20736;BMP180;10528;52.124;5.196;2023-03-11T15:09:28;101065.00;;;13.20
20736;BMP180;10528;52.124;5.196;2023-03-11T15:11:57;101071.00;;;13.20
20736;BMP180;10528;52.124;5.196;2023-03-11T15:14:30;101056.00;;;13.20
20736;BMP180;10528;52.124;5.196;2023-03-11T15:17:22;101060.00;;;13.20
20736;BMP180;10528;52.124;5.196;2023-03-11T15:20:32;101062.00;;;13.20
20736;BMP180;10528;52.124;5.196;2023-03-11T15:23:05;101064.00;;;13.20
20736;BMP180;10528;52.124;5.196;2023-03-11T15:25:37;101059.00;;;13.20
20736;BMP180;10528;52.124;5.196;2023-03-11T15:28:27;101054.00;;;13.20
20736;BMP180;10528;52.124;5.196;2023-03-11T15:31:36;101054.00;;;13.20
20736;BMP180;10528;52.124;5.196;2023-03-11T15:39:26;101048.00;;;13.20
20736;BMP180;10528;52.124;5.196;2023-03-11T15:45:12;101049.00;;;13.10
20736;BMP180;10528;52.124;5.196;2023-03-11T15:47:41;101045.00;;;13.10
20736;BMP180;10528;52.124;5.196;2023-03-11T15:50:28;101048.00;;;13.00
20736;BMP180;10528;52.124;5.196;2023-03-11T15:53:12;101055.00;;;13.00
20736;BMP180;10528;52.124;5.196;2023-03-11T15:55:39;101044.00;;;13.00
20736;BMP180;10528;52.124;5.196;2023-03-11T15:58:07;101041.00;;;13.00
20736;BMP180;10528;52.124;5.196;2023-03-11T16:00:36;101037.00;;;13.00
20736;BMP180;10528;52.124;5.196;2023-03-11T16:03:03;101042.00;;;13.00
20736;BMP180;10528;52.124;5.196;2023-03-11T16:05:30;101043.00;;;13.00
20736;BMP180;10528;52.124;5.196;2023-03-11T16:07:57;101036.00;;;13.00